Time;durP1;ratioP1;P1;durP2;ratioP2;P2;SDS_P1;SDS_P2;PMS_P1;PMS_P2;Temp;Humidity;BMP_temperature;BMP_pressure;BME280_temperature;BME280_humidity;BME280_pressure;Samples;Min_cycle;Max_cycle;Signal;HPM_P1;HPM_P2
2022/08/12 00:43:06;;;;;;;5.05;2.45;;;;;;;;;;512086;29;1042;-88
2022/08/12 00:43:23;;;;;;;4.93;2.42;;;;;;;;;;512330;29;1035;-87
2022/08/12 00:43:42;;;;;;;4.13;2.60;;;;;;;;;;510097;29;1451;-88
2022/08/12 00:43:59;;;;;;;4.28;2.58;;;;;;;;;;510151;29;1357;-88
2022/08/12 00:44:15;;;;;;;3.50;2.60;;;;;;;;;;508170;29;1410;-88
2022/08/12 00:44:30;;;;;;;4.20;2.60;;;;;;;;;;506261;29;1392;-88
2022/08/12 00:44:46;;;;;;;3.77;2.50;;;;;;;;;;504666;29;1159;-88
2022/08/12 00:45:01;;;;;;;3.27;2.60;;;;;;;;;;506349;29;1056;-88
2022/08/12 00:45:17;;;;;;;3.55;2.75;;;;;;;;;;506116;29;958;-87
2022/08/12 00:46:29;;;;;;;4.13;2.78;;;;;;;;;;504336;29;1340;-88
2022/08/12 00:46:59;;;;;;;2.95;2.55;;;;;;;;;;509467;29;1160;-87
2022/08/12 00:47:16;;;;;;;3.20;2.60;;;;;;;;;;509941;29;1377;-88
2022/08/12 00:47:33;;;;;;;3.08;2.60;;;;;;;;;;510255;29;1503;-87
2022/08/12 00:47:51;;;;;;;3.95;2.50;;;;;;;;;;508321;29;1267;-88
2022/08/12 00:48:06;;;;;;;4.60;2.58;;;;;;;;;;505641;29;1455;-88
2022/08/12 00:48:21;;;;;;;3.95;2.60;;;;;;;;;;506201;29;1236;-86
2022/08/12 00:48:38;;;;;;;5.33;2.70;;;;;;;;;;504333;29;1318;-87
2022/08/12 00:48:56;;;;;;;5.60;2.70;;;;;;;;;;505817;29;1321;-87
2022/08/12 00:49:12;;;;;;;4.15;2.70;;;;;;;;;;506200;29;1400;-88
2022/08/12 00:49:29;;;;;;;3.67;2.83;;;;;;;;;;504098;29;1374;-88
2022/08/12 00:49:48;;;;;;;4.10;2.70;;;;;;;;;;503713;29;905;-87
2022/08/12 00:50:05;;;;;;;4.53;2.63;;;;;;;;;;505733;29;890;-87
2022/08/12 00:50:21;;;;;;;3.75;2.42;;;;;;;;;;506125;29;889;-87
2022/08/12 00:50:39;;;;;;;4.22;2.60;;;;;;;;;;504163;29;1297;-88
2022/08/12 00:50:55;;;;;;;5.28;2.90;;;;;;;;;;504199;29;1485;-88
2022/08/12 00:51:11;;;;;;;4.65;2.83;;;;;;;;;;505477;29;1384;-87
2022/08/12 00:52:04;;;;;;;2.90;2.60;;;;;;;;;;506133;29;1282;-87
2022/08/12 00:52:05;;;;;;;4.47;2.60;;;;;;;;;;505850;29;1115;-88
2022/08/12 00:52:21;;;;;;;2.97;2.50;;;;;;;;;;506187;29;1251;-88
2022/08/12 00:52:37;;;;;;;3.25;2.55;;;;;;;;;;506072;29;1425;-88
2022/08/12 00:52:53;;;;;;;3.72;2.78;;;;;;;;;;505836;29;1206;-88
2022/08/12 00:53:08;;;;;;;5.20;2.80;;;;;;;;;;506024;29;1236;-87
2022/08/12 00:53:27;;;;;;;5.15;2.78;;;;;;;;;;504157;29;1320;-87
2022/08/12 00:53:42;;;;;;;3.10;2.60;;;;;;;;;;504278;29;1418;-87
2022/08/12 00:53:58;;;;;;;3.90;2.50;;;;;;;;;;506218;29;1274;-88
2022/08/12 00:54:15;;;;;;;5.03;2.63;;;;;;;;;;506416;29;1351;-87
2022/08/12 00:54:39;;;;;;;4.47;2.53;;;;;;;;;;504106;29;1401;-87
2022/08/12 00:55:00;;;;;;;3.60;2.42;;;;;;;;;;504403;29;861;-87
2022/08/12 00:55:18;;;;;;;3.95;2.60;;;;;;;;;;505342;29;1458;-87
2022/08/12 00:55:33;;;;;;;4.72;2.80;;;;;;;;;;505227;29;1346;-87
2022/08/12 00:55:54;;;;;;;5.22;2.75;;;;;;;;;;504853;29;964;-87
2022/08/12 00:56:09;;;;;;;4.72;2.70;;;;;;;;;;506517;29;1609;-87
2022/08/12 00:56:27;;;;;;;4.97;2.80;;;;;;;;;;507038;29;1346;-87
2022/08/12 00:56:43;;;;;;;4.32;2.70;;;;;;;;;;508085;29;1373;-87
2022/08/12 00:57:03;;;;;;;2.90;2.40;;;;;;;;;;508162;29;802;-87
2022/08/12 00:57:31;;;;;;;2.70;2.50;;;;;;;;;;507951;29;1352;-87
2022/08/12 00:57:48;;;;;;;3.53;2.63;;;;;;;;;;506105;29;1063;-87
2022/08/12 00:58:04;;;;;;;3.72;2.88;;;;;;;;;;508005;29;1390;-87
2022/08/12 00:58:23;;;;;;;3.08;2.70;;;;;;;;;;508063;29;1368;-88
2022/08/12 00:58:46;;;;;;;3.17;2.55;;;;;;;;;;508202;29;1298;-88
2022/08/12 00:59:03;;;;;;;3.38;2.50;;;;;;;;;;508380;29;846;-88
2022/08/12 00:59:18;;;;;;;3.72;2.65;;;;;;;;;;510225;29;1367;-88
2022/08/12 00:59:35;;;;;;;4.03;2.73;;;;;;;;;;508344;29;1269;-87
2022/08/12 00:59:53;;;;;;;3.17;2.70;;;;;;;;;;508328;29;948;-87
2022/08/12 01:00:12;;;;;;;2.83;2.40;;;;;;;;;;510208;29;1460;-87
2022/08/12 01:00:28;;;;;;;3.40;2.58;;;;;;;;;;509850;29;1565;-87
2022/08/12 01:00:43;;;;;;;3.75;2.58;;;;;;;;;;508149;29;1202;-87
2022/08/12 01:01:03;;;;;;;4.10;2.50;;;;;;;;;;508046;29;1327;-87
2022/08/12 01:01:19;;;;;;;4.03;2.50;;;;;;;;;;507821;29;1529;-87
2022/08/12 01:01:36;;;;;;;4.15;2.42;;;;;;;;;;506375;29;1270;-87
2022/08/12 01:01:53;;;;;;;4.05;2.47;;;;;;;;;;502615;29;1373;-87
2022/08/12 01:02:13;;;;;;;3.23;2.47;;;;;;;;;;504841;29;1355;-87
2022/08/12 01:02:32;;;;;;;3.60;2.53;;;;;;;;;;506617;29;1328;-86
2022/08/12 01:02:51;;;;;;;4.15;2.50;;;;;;;;;;506435;29;1964;-86
2022/08/12 01:03:10;;;;;;;3.40;2.33;;;;;;;;;;506335;29;814;-87
2022/08/12 01:03:26;;;;;;;3.88;2.70;;;;;;;;;;506777;29;1246;-86
2022/08/12 01:11:34;;;;;;;4.57;2.70;;;;;;;;;;510516;29;675;-88
2022/08/12 01:11:51;;;;;;;5.13;2.83;;;;;;;;;;510123;29;1301;-89
2022/08/12 01:12:09;;;;;;;5.50;2.83;;;;;;;;;;510323;29;1337;-88
2022/08/12 01:12:26;;;;;;;2.78;2.47;;;;;;;;;;508315;29;1283;-88
2022/08/12 01:12:41;;;;;;;2.58;2.38;;;;;;;;;;506549;29;1241;-88
2022/08/12 01:12:58;;;;;;;2.85;2.55;;;;;;;;;;506346;29;877;-88
2022/08/12 01:13:15;;;;;;;3.33;2.60;;;;;;;;;;506304;29;1383;-88
2022/08/12 01:13:37;;;;;;;3.65;2.50;;;;;;;;;;506361;29;1596;-88
2022/08/12 01:13:55;;;;;;;4.05;2.60;;;;;;;;;;506443;29;1314;-88
2022/08/12 01:14:11;;;;;;;3.72;2.58;;;;;;;;;;504281;29;1216;-88
2022/08/12 01:14:27;;;;;;;2.95;2.60;;;;;;;;;;504272;29;1461;-88
2022/08/12 01:14:43;;;;;;;2.72;2.42;;;;;;;;;;504484;29;1402;-88
2022/08/12 01:15:00;;;;;;;3.50;2.50;;;;;;;;;;506482;29;1376;-88
2022/08/12 01:15:16;;;;;;;4.22;2.70;;;;;;;;;;506309;29;1247;-88
2022/08/12 01:15:32;;;;;;;4.10;2.70;;;;;;;;;;506331;29;1375;-88
2022/08/12 01:15:50;;;;;;;3.63;2.65;;;;;;;;;;506295;29;1037;-89
2022/08/12 01:16:07;;;;;;;4.10;2.60;;;;;;;;;;506257;29;1464;-89
2022/08/12 01:16:24;;;;;;;5.03;2.60;;;;;;;;;;508754;29;1245;-88
2022/08/12 01:16:40;;;;;;;3.95;2.60;;;;;;;;;;508343;29;1263;-88
2022/08/12 01:16:56;;;;;;;4.07;2.60;;;;;;;;;;504302;29;1258;-87
2022/08/12 01:17:12;;;;;;;4.15;2.50;;;;;;;;;;504300;29;1302;-87
2022/08/12 01:17:28;;;;;;;4.63;2.70;;;;;;;;;;506286;29;1183;-87
2022/08/12 01:17:44;;;;;;;4.75;2.63;;;;;;;;;;506265;29;1328;-88
2022/08/12 01:18:00;;;;;;;4.23;2.40;;;;;;;;;;506342;29;1172;-87
2022/08/12 01:18:18;;;;;;;3.42;2.50;;;;;;;;;;506146;29;897;-87
2022/08/12 01:18:36;;;;;;;3.80;2.50;;;;;;;;;;508132;29;1269;-86
2022/08/12 01:18:55;;;;;;;3.10;2.50;;;;;;;;;;509719;29;889;-88
2022/08/12 01:19:11;;;;;;;3.38;2.60;;;;;;;;;;507339;29;1465;-86
2022/08/12 01:19:27;;;;;;;3.58;2.65;;;;;;;;;;506419;29;1264;-86
2022/08/12 01:19:43;;;;;;;3.30;2.60;;;;;;;;;;506735;29;1121;-86
2022/08/12 01:20:04;;;;;;;3.55;2.78;;;;;;;;;;506586;29;1585;-86
2022/08/12 01:20:34;;;;;;;3.60;2.75;;;;;;;;;;506502;29;1346;-86
2022/08/12 01:21:05;;;;;;;3.63;2.70;;;;;;;;;;504329;29;889;-88
2022/08/12 01:21:26;;;;;;;2.90;2.50;;;;;;;;;;508341;29;1273;-86
2022/08/12 01:22:03;;;;;;;3.40;2.70;;;;;;;;;;507130;29;1350;-86
2022/08/12 01:22:29;;;;;;;3.55;2.60;;;;;;;;;;508225;29;1293;-86
2022/08/12 01:23:27;;;;;;;3.80;2.53;;;;;;;;;;507222;29;1919;-86
2022/08/12 01:23:48;;;;;;;4.75;2.80;;;;;;;;;;504239;29;1079;-87
2022/08/12 01:24:29;;;;;;;4.68;2.78;;;;;;;;;;504266;29;1422;-87
2022/08/12 01:24:54;;;;;;;4.10;2.60;;;;;;;;;;509746;29;1460;-87
2022/08/12 01:25:17;;;;;;;5.68;2.80;;;;;;;;;;510263;29;1324;-87
2022/08/12 01:25:37;;;;;;;5.82;2.80;;;;;;;;;;507991;29;1377;-87
2022/08/12 01:25:54;;;;;;;5.10;2.63;;;;;;;;;;506378;29;1220;-87
2022/08/12 01:26:16;;;;;;;4.53;2.63;;;;;;;;;;506194;29;1388;-87
2022/08/12 01:26:33;;;;;;;3.60;2.70;;;;;;;;;;506524;29;1359;-87
2022/08/12 01:26:52;;;;;;;4.40;2.50;;;;;;;;;;506342;29;1280;-87
2022/08/12 01:27:10;;;;;;;4.45;2.60;;;;;;;;;;506935;29;1312;-87
2022/08/12 01:27:26;;;;;;;3.63;2.60;;;;;;;;;;506382;29;1238;-87
2022/08/12 01:27:43;;;;;;;3.58;2.50;;;;;;;;;;510308;29;1232;-88
2022/08/12 01:28:00;;;;;;;2.97;2.40;;;;;;;;;;510209;29;1352;-87
2022/08/12 01:28:18;;;;;;;4.93;2.47;;;;;;;;;;508815;29;1399;-87
2022/08/12 01:28:34;;;;;;;4.63;2.60;;;;;;;;;;506537;29;1311;-86
2022/08/12 01:28:55;;;;;;;3.00;2.65;;;;;;;;;;502456;29;1231;-87
2022/08/12 01:29:17;;;;;;;4.60;2.70;;;;;;;;;;504419;29;1270;-87
2022/08/12 01:29:40;;;;;;;5.22;2.85;;;;;;;;;;506777;29;1018;-87
2022/08/12 01:29:56;;;;;;;4.88;2.65;;;;;;;;;;504251;29;1434;-88
2022/08/12 01:30:13;;;;;;;3.30;2.63;;;;;;;;;;504216;29;1199;-87
2022/08/12 01:30:32;;;;;;;3.28;2.70;;;;;;;;;;502688;29;1270;-87
2022/08/12 01:30:49;;;;;;;4.07;2.50;;;;;;;;;;504073;29;1220;-87
2022/08/12 01:31:05;;;;;;;4.55;2.60;;;;;;;;;;504451;29;864;-87
2022/08/12 01:31:21;;;;;;;4.00;2.60;;;;;;;;;;503802;29;1337;-87
2022/08/12 01:31:39;;;;;;;3.88;2.58;;;;;;;;;;502647;29;866;-87
2022/08/12 01:31:58;;;;;;;3.22;2.42;;;;;;;;;;504066;29;866;-87
2022/08/12 01:32:17;;;;;;;4.00;2.50;;;;;;;;;;502956;29;1084;-87
2022/08/12 01:32:36;;;;;;;3.65;2.45;;;;;;;;;;504453;29;967;-87
2022/08/12 01:32:55;;;;;;;3.95;2.40;;;;;;;;;;506376;29;1012;-87
2022/08/12 01:33:15;;;;;;;4.00;2.70;;;;;;;;;;504824;29;1343;-87
2022/08/12 01:33:42;;;;;;;3.47;2.60;;;;;;;;;;506301;29;1421;-87
2022/08/12 01:34:11;;;;;;;4.28;2.55;;;;;;;;;;506208;29;1281;-87
2022/08/12 01:34:38;;;;;;;3.15;2.38;;;;;;;;;;508297;29;893;-87
2022/08/12 01:35:00;;;;;;;3.60;2.65;;;;;;;;;;508476;29;1497;-87
2022/08/12 01:35:16;;;;;;;3.25;2.50;;;;;;;;;;509601;29;1464;-88
2022/08/12 01:35:34;;;;;;;3.10;2.50;;;;;;;;;;507984;29;1435;-88
2022/08/12 01:35:59;;;;;;;4.30;2.70;;;;;;;;;;508053;29;1237;-87
2022/08/12 01:36:17;;;;;;;4.10;2.70;;;;;;;;;;508140;29;1107;-87
2022/08/12 01:36:46;;;;;;;3.10;2.50;;;;;;;;;;508298;29;1442;-87
2022/08/12 01:37:03;;;;;;;4.22;2.50;;;;;;;;;;510162;29;940;-87
2022/08/12 01:37:23;;;;;;;4.93;2.67;;;;;;;;;;510529;29;1239;-85
2022/08/12 01:37:47;;;;;;;3.45;2.40;;;;;;;;;;510757;29;1367;-87
2022/08/12 01:38:07;;;;;;;3.03;2.50;;;;;;;;;;509927;29;1352;-87
2022/08/12 01:38:24;;;;;;;3.25;2.50;;;;;;;;;;508679;29;1249;-87
2022/08/12 01:38:42;;;;;;;3.80;2.50;;;;;;;;;;508418;29;1451;-87
2022/08/12 01:38:59;;;;;;;3.60;2.58;;;;;;;;;;506340;29;1321;-88
2022/08/12 01:39:16;;;;;;;5.15;2.47;;;;;;;;;;508340;29;1394;-88
2022/08/12 01:39:37;;;;;;;4.38;2.40;;;;;;;;;;506462;29;1317;-87
2022/08/12 01:39:56;;;;;;;3.53;2.47;;;;;;;;;;506324;29;1257;-87
2022/08/12 01:40:15;;;;;;;3.88;2.60;;;;;;;;;;506616;29;1549;-87
2022/08/12 01:40:33;;;;;;;3.72;2.58;;;;;;;;;;506488;29;951;-87
2022/08/12 01:40:50;;;;;;;4.10;2.40;;;;;;;;;;506922;29;1267;-87
2022/08/12 01:41:10;;;;;;;5.22;2.70;;;;;;;;;;508172;29;1130;-87
2022/08/12 01:41:30;;;;;;;4.25;2.50;;;;;;;;;;508328;29;1403;-87
2022/08/12 01:41:52;;;;;;;4.95;2.38;;;;;;;;;;510186;29;1371;-88
2022/08/12 01:42:08;;;;;;;6.18;2.60;;;;;;;;;;506909;29;1276;-87
2022/08/12 01:42:27;;;;;;;5.55;2.63;;;;;;;;;;504384;29;1234;-88
2022/08/12 01:42:49;;;;;;;3.13;2.45;;;;;;;;;;506799;29;1887;-88
2022/08/12 01:43:07;;;;;;;2.55;2.30;;;;;;;;;;508135;29;1359;-87
2022/08/12 01:43:24;;;;;;;3.85;2.40;;;;;;;;;;509607;29;885;-87
2022/08/12 01:43:41;;;;;;;4.32;2.70;;;;;;;;;;507212;29;1437;-87
2022/08/12 01:44:00;;;;;;;3.75;2.70;;;;;;;;;;508631;29;1210;-87
2022/08/12 01:44:16;;;;;;;3.28;2.33;;;;;;;;;;508157;29;1421;-87
2022/08/12 01:44:33;;;;;;;3.03;2.45;;;;;;;;;;506299;29;1311;-88
2022/08/12 01:44:51;;;;;;;3.28;2.45;;;;;;;;;;506164;29;1343;-88
2022/08/12 01:45:07;;;;;;;3.92;2.30;;;;;;;;;;504229;29;1409;-87
2022/08/12 01:45:28;;;;;;;3.25;2.30;;;;;;;;;;508573;29;1168;-87
2022/08/12 01:45:58;;;;;;;2.78;2.47;;;;;;;;;;506356;29;1267;-87
2022/08/12 01:46:21;;;;;;;3.10;2.42;;;;;;;;;;506352;29;984;-87
2022/08/12 01:46:36;;;;;;;3.28;2.45;;;;;;;;;;508275;29;1242;-87
2022/08/12 01:47:22;;;;;;;4.90;2.42;;;;;;;;;;508246;29;1497;-87
2022/08/12 01:48:13;;;;;;;3.30;2.60;;;;;;;;;;506318;29;960;-87
2022/08/12 01:48:46;;;;;;;5.32;2.70;;;;;;;;;;500445;29;1387;-87
2022/08/12 01:49:19;;;;;;;4.07;2.50;;;;;;;;;;508422;29;964;-87
2022/08/12 01:49:44;;;;;;;3.28;2.42;;;;;;;;;;508435;29;1269;-87
2022/08/12 01:50:15;;;;;;;2.90;2.60;;;;;;;;;;508437;29;1306;-87
2022/08/12 01:50:56;;;;;;;3.70;2.67;;;;;;;;;;508292;29;1246;-87
2022/08/12 01:51:39;;;;;;;4.40;2.58;;;;;;;;;;510265;29;1369;-87
2022/08/12 01:52:03;;;;;;;3.63;2.55;;;;;;;;;;511931;29;922;-87
2022/08/12 01:52:42;;;;;;;3.50;2.70;;;;;;;;;;512071;29;893;-87
2022/08/12 01:53:10;;;;;;;2.65;2.40;;;;;;;;;;508375;29;1433;-87
2022/08/12 01:53:34;;;;;;;3.45;2.50;;;;;;;;;;508128;29;1400;-87
2022/08/12 01:54:06;;;;;;;3.50;2.58;;;;;;;;;;508022;29;972;-87
2022/08/12 01:54:22;;;;;;;4.82;2.63;;;;;;;;;;508209;29;877;-86
2022/08/12 01:54:43;;;;;;;3.90;2.70;;;;;;;;;;506275;29;1383;-86
2022/08/12 01:54:59;;;;;;;5.00;2.55;;;;;;;;;;510241;29;1421;-88
2022/08/12 01:55:19;;;;;;;4.50;2.42;;;;;;;;;;508184;29;1392;-87
2022/08/12 01:55:38;;;;;;;4.20;2.50;;;;;;;;;;508447;29;1438;-87
2022/08/12 01:55:55;;;;;;;4.20;2.55;;;;;;;;;;508143;29;1234;-87
2022/08/12 01:56:13;;;;;;;6.40;2.83;;;;;;;;;;508284;29;1302;-87
2022/08/12 01:56:33;;;;;;;6.60;2.80;;;;;;;;;;508343;29;1245;-87
2022/08/12 01:57:09;;;;;;;2.95;2.42;;;;;;;;;;507651;29;948;-87
2022/08/12 01:57:38;;;;;;;3.00;2.50;;;;;;;;;;508972;29;1079;-87
2022/08/12 01:59:44;;;;;;;3.50;2.50;;;;;;;;;;510379;29;1358;-87
2022/08/12 02:00:05;;;;;;;4.88;2.63;;;;;;;;;;511927;29;711;-89
2022/08/12 02:00:20;;;;;;;3.10;2.55;;;;;;;;;;509715;29;1036;-88
2022/08/12 02:00:50;;;;;;;2.60;2.40;;;;;;;;;;510132;29;1277;-88
2022/08/12 02:01:10;;;;;;;3.35;2.53;;;;;;;;;;512056;29;944;-89
2022/08/12 02:01:33;;;;;;;3.55;2.60;;;;;;;;;;510081;29;1447;-89
2022/08/12 02:01:51;;;;;;;3.28;2.63;;;;;;;;;;510054;29;1313;-88
2022/08/12 02:02:11;;;;;;;3.05;2.60;;;;;;;;;;510171;29;1273;-87
2022/08/12 02:02:34;;;;;;;3.70;2.53;;;;;;;;;;510233;29;968;-88
2022/08/12 02:03:18;;;;;;;4.00;2.80;;;;;;;;;;510061;29;1899;-88
2022/08/12 02:11:31;;;;;;;5.75;2.85;;;;;;;;;;510288;29;769;-87
2022/08/12 02:12:12;;;;;;;4.85;2.65;;;;;;;;;;509935;29;1381;-87
2022/08/12 02:12:49;;;;;;;3.53;2.63;;;;;;;;;;509917;29;1285;-88
2022/08/12 02:13:22;;;;;;;6.63;2.78;;;;;;;;;;533710;27;20353;-87
2022/08/12 02:13:37;;;;;;;3.75;2.90;;;;;;;;;;532454;27;894;-87
2022/08/12 02:14:16;;;;;;;3.57;2.70;;;;;;;;;;532339;27;1353;-87
2022/08/12 02:14:59;;;;;;;5.68;2.90;;;;;;;;;;531933;27;1472;-87
2022/08/12 02:15:46;;;;;;;4.47;2.90;;;;;;;;;;530542;28;1282;-87
2022/08/12 02:16:12;;;;;;;4.20;2.90;;;;;;;;;;528006;28;1408;-86
2022/08/12 02:16:49;;;;;;;4.82;2.90;;;;;;;;;;529573;28;844;-87
2022/08/12 02:17:23;;;;;;;4.32;2.80;;;;;;;;;;528645;28;1273;-88
2022/08/12 02:17:59;;;;;;;5.35;2.80;;;;;;;;;;528231;28;990;-87
2022/08/12 02:18:32;;;;;;;4.65;2.80;;;;;;;;;;529829;28;1064;-87
2022/08/12 02:19:15;;;;;;;4.95;3.10;;;;;;;;;;528087;28;1245;-87
2022/08/12 02:20:04;;;;;;;4.03;2.90;;;;;;;;;;530992;27;1364;-88
2022/08/12 02:20:25;;;;;;;4.47;3.00;;;;;;;;;;530087;28;1364;-87
2022/08/12 02:21:02;;;;;;;4.85;3.20;;;;;;;;;;530100;28;1375;-87
2022/08/12 02:21:29;;;;;;;4.35;2.83;;;;;;;;;;528022;28;1275;-87
2022/08/12 02:21:53;;;;;;;4.70;2.80;;;;;;;;;;527983;28;1339;-87
2022/08/12 02:22:27;;;;;;;6.00;3.00;;;;;;;;;;526039;28;981;-87
2022/08/12 02:22:46;;;;;;;5.38;2.90;;;;;;;;;;526023;28;1341;-87
2022/08/12 02:23:03;;;;;;;4.07;2.90;;;;;;;;;;526120;28;875;-87
2022/08/12 02:23:24;;;;;;;4.03;2.75;;;;;;;;;;525782;28;1367;-86
2022/08/12 02:23:40;;;;;;;3.85;2.70;;;;;;;;;;526059;28;1283;-88
2022/08/12 02:23:58;;;;;;;4.63;2.67;;;;;;;;;;525907;28;1319;-87
2022/08/12 02:24:18;;;;;;;4.55;2.70;;;;;;;;;;525908;28;1218;-87
2022/08/12 02:24:37;;;;;;;6.22;2.85;;;;;;;;;;524426;28;1326;-88
2022/08/12 02:25:04;;;;;;;4.50;2.65;;;;;;;;;;525976;28;1373;-87
2022/08/12 02:25:33;;;;;;;4.00;2.60;;;;;;;;;;525882;28;1389;-88
2022/08/12 02:25:54;;;;;;;3.35;2.70;;;;;;;;;;524695;28;919;-88
2022/08/12 02:26:14;;;;;;;3.90;2.80;;;;;;;;;;525420;28;1347;-87
2022/08/12 02:26:32;;;;;;;5.57;2.75;;;;;;;;;;526211;28;824;-87
2022/08/12 02:26:50;;;;;;;4.35;2.70;;;;;;;;;;525174;28;1299;-87
2022/08/12 02:27:07;;;;;;;3.60;2.47;;;;;;;;;;526115;28;1250;-87
2022/08/12 02:27:26;;;;;;;5.07;2.63;;;;;;;;;;528014;28;1469;-88
2022/08/12 02:27:47;;;;;;;6.43;2.70;;;;;;;;;;529019;28;1389;-87
2022/08/12 02:28:03;;;;;;;5.17;2.63;;;;;;;;;;528104;28;911;-88
2022/08/12 02:28:19;;;;;;;4.93;2.55;;;;;;;;;;528103;28;824;-87
2022/08/12 02:28:36;;;;;;;4.30;2.63;;;;;;;;;;528290;28;947;-87
2022/08/12 02:28:52;;;;;;;3.90;2.60;;;;;;;;;;530278;28;910;-88
2022/08/12 02:29:07;;;;;;;5.43;2.57;;;;;;;;;;528125;28;1235;-86
2022/08/12 02:29:24;;;;;;;6.15;2.60;;;;;;;;;;526060;28;1171;-87
2022/08/12 02:29:40;;;;;;;5.15;2.65;;;;;;;;;;525584;28;1334;-87
2022/08/12 02:29:56;;;;;;;4.35;2.70;;;;;;;;;;526830;28;840;-86
2022/08/12 02:30:15;;;;;;;3.53;2.80;;;;;;;;;;528109;28;1206;-87
2022/08/12 02:30:32;;;;;;;3.03;2.60;;;;;;;;;;528201;28;1089;-86
2022/08/12 02:30:48;;;;;;;3.55;2.42;;;;;;;;;;526039;28;1247;-88
2022/08/12 02:31:06;;;;;;;3.60;2.40;;;;;;;;;;525851;28;1255;-87
2022/08/12 02:31:23;;;;;;;4.45;2.60;;;;;;;;;;523925;28;1353;-88
2022/08/12 02:31:42;;;;;;;4.60;2.70;;;;;;;;;;527664;28;1242;-87
2022/08/12 02:31:58;;;;;;;3.95;2.53;;;;;;;;;;525816;28;1236;-87
2022/08/12 02:32:14;;;;;;;3.65;2.30;;;;;;;;;;527878;28;1124;-87
2022/08/12 02:32:35;;;;;;;3.15;2.30;;;;;;;;;;528001;28;907;-88
2022/08/12 02:32:52;;;;;;;4.43;2.50;;;;;;;;;;527865;28;1434;-86
2022/08/12 02:33:09;;;;;;;2.85;2.50;;;;;;;;;;527922;28;1341;-88
2022/08/12 02:33:25;;;;;;;2.85;2.47;;;;;;;;;;523735;28;1250;-88
2022/08/12 02:33:41;;;;;;;3.70;2.40;;;;;;;;;;523849;28;1161;-87
2022/08/12 02:33:57;;;;;;;3.55;2.30;;;;;;;;;;523466;28;1273;-88
2022/08/12 02:34:15;;;;;;;4.65;2.40;;;;;;;;;;525602;28;1386;-88
2022/08/12 02:34:32;;;;;;;4.70;2.50;;;;;;;;;;525953;28;1273;-88
2022/08/12 02:34:48;;;;;;;3.30;2.50;;;;;;;;;;525284;28;1301;-88
2022/08/12 02:35:06;;;;;;;4.97;2.53;;;;;;;;;;526014;28;811;-88
2022/08/12 02:35:26;;;;;;;4.55;2.40;;;;;;;;;;525941;28;1182;-88
2022/08/12 02:35:42;;;;;;;3.92;2.42;;;;;;;;;;526076;28;1331;-87
2022/08/12 02:36:00;;;;;;;4.10;2.50;;;;;;;;;;525950;28;1198;-88
2022/08/12 02:36:15;;;;;;;4.10;2.35;;;;;;;;;;525982;28;1405;-88
2022/08/12 02:36:33;;;;;;;4.93;2.40;;;;;;;;;;526204;28;1318;-87
2022/08/12 02:36:52;;;;;;;3.97;2.35;;;;;;;;;;523734;28;1336;-87
2022/08/12 02:37:14;;;;;;;4.43;2.40;;;;;;;;;;521693;28;1382;-88
2022/08/12 02:37:30;;;;;;;5.63;2.42;;;;;;;;;;521636;28;1390;-87
2022/08/12 02:37:48;;;;;;;3.75;2.40;;;;;;;;;;521669;28;1250;-89
2022/08/12 02:38:08;;;;;;;3.90;2.40;;;;;;;;;;523994;28;1327;-88
2022/08/12 02:38:26;;;;;;;2.70;2.22;;;;;;;;;;525890;28;1255;-88
2022/08/12 02:38:42;;;;;;;3.17;2.50;;;;;;;;;;526062;28;1302;-87
2022/08/12 02:38:59;;;;;;;2.95;2.50;;;;;;;;;;525990;28;1310;-87
2022/08/12 02:39:15;;;;;;;2.97;2.58;;;;;;;;;;523872;28;1417;-87
2022/08/12 02:39:32;;;;;;;3.30;2.60;;;;;;;;;;526039;28;1222;-87
2022/08/12 02:39:48;;;;;;;3.22;2.50;;;;;;;;;;525890;28;1436;-88
2022/08/12 02:40:06;;;;;;;3.28;2.42;;;;;;;;;;526272;28;938;-87
2022/08/12 02:40:23;;;;;;;3.95;2.50;;;;;;;;;;523795;28;1337;-88
2022/08/12 02:40:41;;;;;;;3.53;2.50;;;;;;;;;;524090;28;1252;-88
2022/08/12 02:41:00;;;;;;;4.38;2.50;;;;;;;;;;523873;28;1488;-88
2022/08/12 02:41:20;;;;;;;4.63;2.58;;;;;;;;;;523681;28;1374;-87
2022/08/12 02:41:42;;;;;;;3.33;2.30;;;;;;;;;;526281;28;1289;-88
2022/08/12 02:42:00;;;;;;;2.80;2.27;;;;;;;;;;525733;28;1332;-87
2022/08/12 02:42:19;;;;;;;3.42;2.40;;;;;;;;;;527856;28;1225;-87
2022/08/12 02:42:37;;;;;;;4.20;2.40;;;;;;;;;;527900;28;1571;-88
2022/08/12 02:43:03;;;;;;;4.63;2.50;;;;;;;;;;525676;28;1297;-88
2022/08/12 02:43:27;;;;;;;3.22;2.20;;;;;;;;;;525917;28;884;-88
2022/08/12 02:43:57;;;;;;;3.70;2.35;;;;;;;;;;528108;28;920;-87
2022/08/12 02:44:16;;;;;;;5.07;2.58;;;;;;;;;;527463;28;1086;-87
2022/08/12 02:44:39;;;;;;;4.28;2.60;;;;;;;;;;529821;28;1299;-87
2022/08/12 02:44:55;;;;;;;4.35;2.67;;;;;;;;;;532353;27;1374;-87
2022/08/12 02:45:11;;;;;;;4.30;2.45;;;;;;;;;;530269;28;1392;-88
2022/08/12 02:45:52;;;;;;;6.05;2.45;;;;;;;;;;528119;28;1392;-88
2022/08/12 02:46:10;;;;;;;3.00;2.38;;;;;;;;;;528130;28;1381;-87
2022/08/12 02:46:31;;;;;;;2.97;2.28;;;;;;;;;;528122;28;1355;-87
2022/08/12 02:46:49;;;;;;;3.13;2.20;;;;;;;;;;528100;28;1500;-88
2022/08/12 02:47:06;;;;;;;4.43;2.40;;;;;;;;;;526969;28;1423;-88
2022/08/12 02:47:25;;;;;;;3.78;2.38;;;;;;;;;;527993;28;836;-88
2022/08/12 02:47:41;;;;;;;3.30;2.40;;;;;;;;;;528050;28;1053;-88
2022/08/12 02:48:00;;;;;;;3.30;2.53;;;;;;;;;;527823;28;1243;-88
2022/08/12 02:48:25;;;;;;;3.33;2.42;;;;;;;;;;528590;28;1294;-88
2022/08/12 02:48:44;;;;;;;3.28;2.42;;;;;;;;;;530281;28;919;-88
2022/08/12 02:49:05;;;;;;;4.47;2.40;;;;;;;;;;529352;28;1385;-88
2022/08/12 02:49:31;;;;;;;3.47;2.42;;;;;;;;;;528193;28;1312;-88
2022/08/12 02:49:54;;;;;;;5.32;2.40;;;;;;;;;;525707;28;1413;-87
2022/08/12 02:50:10;;;;;;;3.03;2.33;;;;;;;;;;526069;28;1286;-89
2022/08/12 02:50:30;;;;;;;3.83;2.43;;;;;;;;;;525993;28;939;-88
2022/08/12 02:50:50;;;;;;;4.50;2.55;;;;;;;;;;525906;28;1225;-88
2022/08/12 02:51:10;;;;;;;3.85;2.50;;;;;;;;;;525909;28;1219;-88
2022/08/12 02:51:30;;;;;;;4.15;2.70;;;;;;;;;;528034;28;1379;-87
2022/08/12 02:51:46;;;;;;;4.53;2.63;;;;;;;;;;528063;28;1246;-88
2022/08/12 02:52:03;;;;;;;4.82;2.70;;;;;;;;;;526752;28;1222;-88
2022/08/12 02:52:19;;;;;;;7.22;2.90;;;;;;;;;;525963;28;1273;-89
2022/08/12 02:52:36;;;;;;;6.78;2.67;;;;;;;;;;526130;28;1393;-88
2022/08/12 02:52:52;;;;;;;4.47;2.40;;;;;;;;;;525966;28;1275;-87
2022/08/12 02:53:08;;;;;;;3.60;2.33;;;;;;;;;;527998;28;1953;-88
2022/08/12 02:53:24;;;;;;;3.15;2.50;;;;;;;;;;528043;28;1498;-87
2022/08/12 02:53:40;;;;;;;3.65;2.55;;;;;;;;;;528283;28;1037;-88
2022/08/12 02:53:59;;;;;;;4.78;2.58;;;;;;;;;;527993;28;1301;-88
2022/08/12 02:54:14;;;;;;;6.10;2.53;;;;;;;;;;527947;28;1239;-88
2022/08/12 02:54:30;;;;;;;4.85;2.50;;;;;;;;;;529452;28;1299;-86
2022/08/12 02:54:50;;;;;;;3.70;2.60;;;;;;;;;;526978;28;1267;-87
2022/08/12 02:55:17;;;;;;;3.35;2.40;;;;;;;;;;523972;28;1300;-88
2022/08/12 02:55:35;;;;;;;3.80;2.72;;;;;;;;;;523830;28;1382;-87
2022/08/12 02:55:50;;;;;;;3.88;2.63;;;;;;;;;;525057;28;910;-88
2022/08/12 02:56:06;;;;;;;3.78;2.58;;;;;;;;;;528931;28;1277;-88
2022/08/12 02:56:22;;;;;;;4.30;2.50;;;;;;;;;;528072;28;1292;-88
2022/08/12 02:56:40;;;;;;;4.20;2.50;;;;;;;;;;526943;28;1203;-87
2022/08/12 02:56:55;;;;;;;3.22;2.50;;;;;;;;;;528698;28;949;-87
2022/08/12 02:57:12;;;;;;;2.93;2.50;;;;;;;;;;528065;28;1272;-87
2022/08/12 02:57:30;;;;;;;4.63;2.47;;;;;;;;;;528060;28;1292;-87
2022/08/12 02:57:46;;;;;;;4.43;2.58;;;;;;;;;;525914;28;1208;-87
2022/08/12 02:58:06;;;;;;;4.43;2.55;;;;;;;;;;523930;28;1317;-88
2022/08/12 02:58:23;;;;;;;5.65;2.75;;;;;;;;;;523727;28;1366;-88
2022/08/12 02:58:39;;;;;;;3.97;2.60;;;;;;;;;;523990;28;1370;-87
2022/08/12 02:58:56;;;;;;;4.25;2.65;;;;;;;;;;521683;28;1198;-88
2022/08/12 02:59:16;;;;;;;4.47;2.78;;;;;;;;;;521975;28;832;-86
2022/08/12 02:59:34;;;;;;;4.00;2.65;;;;;;;;;;524033;28;1385;-86
2022/08/12 02:59:51;;;;;;;4.97;2.58;;;;;;;;;;524283;28;930;-86
2022/08/12 03:00:07;;;;;;;4.32;2.50;;;;;;;;;;524186;28;1434;-86
2022/08/12 03:00:24;;;;;;;4.63;2.50;;;;;;;;;;523759;28;1240;-86
2022/08/12 03:00:41;;;;;;;6.15;2.80;;;;;;;;;;525978;28;1217;-86
2022/08/12 03:01:00;;;;;;;5.85;2.90;;;;;;;;;;525966;28;1226;-85
2022/08/12 03:01:18;;;;;;;5.57;2.80;;;;;;;;;;523692;28;1371;-86
2022/08/12 03:01:38;;;;;;;5.10;2.70;;;;;;;;;;523762;28;1292;-86
2022/08/12 03:02:02;;;;;;;4.03;2.60;;;;;;;;;;523613;28;1219;-87
2022/08/12 03:02:20;;;;;;;3.70;2.47;;;;;;;;;;523778;28;1268;-85
2022/08/12 03:02:38;;;;;;;4.50;2.60;;;;;;;;;;526019;28;1235;-86
2022/08/12 03:02:57;;;;;;;3.58;2.65;;;;;;;;;;523886;28;1248;-86
2022/08/12 03:03:13;;;;;;;3.35;2.90;;;;;;;;;;525949;28;1361;-86
2022/08/12 03:03:33;;;;;;;3.10;2.80;;;;;;;;;;527497;28;820;-86
2022/08/12 03:03:51;;;;;;;3.17;2.60;;;;;;;;;;525955;28;1294;-89
2022/08/12 03:04:09;;;;;;;3.65;2.80;;;;;;;;;;525969;28;835;-86
2022/08/12 03:04:40;;;;;;;3.45;2.60;;;;;;;;;;523933;28;1544;-86
2022/08/12 03:04:57;;;;;;;3.55;2.50;;;;;;;;;;525651;28;1505;-88
2022/08/12 03:05:16;;;;;;;4.30;2.60;;;;;;;;;;528036;28;1419;-87
2022/08/12 03:05:34;;;;;;;4.93;2.70;;;;;;;;;;526027;28;1389;-86
2022/08/12 03:05:57;;;;;;;6.07;2.75;;;;;;;;;;525948;28;1215;-87
2022/08/12 03:06:20;;;;;;;4.57;2.80;;;;;;;;;;524067;28;1227;-87
2022/08/12 03:06:46;;;;;;;3.45;2.53;;;;;;;;;;523809;28;1369;-86
2022/08/12 03:07:25;;;;;;;5.47;2.72;;;;;;;;;;523709;28;1441;-86
2022/08/12 03:07:45;;;;;;;3.40;2.53;;;;;;;;;;524517;28;1594;-86
2022/08/12 03:08:03;;;;;;;3.50;2.60;;;;;;;;;;524149;28;1312;-87
2022/08/12 03:08:23;;;;;;;4.32;2.75;;;;;;;;;;523821;28;1215;-87